createdAt,value
2023-01-21T00:02:14.554Z,6.30
2023-01-21T00:04:43.252Z,6.25
2023-01-21T00:07:11.939Z,5.28
2023-01-21T00:09:42.097Z,4.88
2023-01-21T00:12:10.837Z,5.40
2023-01-21T00:14:42.402Z,5.43
2023-01-21T00:17:11.372Z,5.78
2023-01-21T00:19:42.415Z,5.65
2023-01-21T00:22:11.031Z,5.35
2023-01-21T00:24:39.727Z,4.72
2023-01-21T00:27:09.748Z,4.53
2023-01-21T00:29:39.308Z,5.35
2023-01-21T00:32:10.395Z,5.72
2023-01-21T00:34:38.986Z,5.47
2023-01-21T00:37:07.874Z,5.28
2023-01-21T00:39:36.589Z,4.90
2023-01-21T00:42:05.557Z,5.00
2023-01-21T00:44:35.561Z,4.60
2023-01-21T00:47:04.357Z,4.47
2023-01-21T00:49:33.094Z,5.03
2023-01-21T00:52:01.748Z,5.35
2023-01-21T00:54:32.272Z,4.50
2023-01-21T00:57:00.908Z,4.88
2023-01-21T00:59:30.136Z,5.22
2023-01-21T01:02:00.177Z,4.95
2023-01-21T01:04:28.819Z,5.10
2023-01-21T01:06:57.363Z,4.88
2023-01-21T01:09:26.037Z,4.47
2023-01-21T01:11:54.688Z,5.15
2023-01-21T01:14:25.567Z,4.70
2023-01-21T01:16:54.324Z,5.15
2023-01-21T01:19:24.374Z,5.75
2023-01-21T01:21:52.965Z,5.38
2023-01-21T01:24:21.600Z,5.32
2023-01-21T01:26:50.375Z,6.10
2023-01-21T01:29:19.385Z,5.65
2023-01-21T01:31:48.207Z,6.90
2023-01-21T01:34:16.935Z,5.85
2023-01-21T01:36:47.997Z,5.75
2023-01-21T01:39:16.569Z,5.90
2023-01-21T01:41:45.302Z,5.93
2023-01-21T01:44:32.645Z,5.65
2023-01-21T01:47:02.255Z,5.68
2023-01-21T01:49:31.085Z,5.97
2023-01-21T01:52:03.426Z,5.68
2023-01-21T01:54:33.771Z,5.20
2023-01-21T01:57:03.961Z,5.22
2023-01-21T01:59:33.790Z,5.55
2023-01-21T02:02:05.553Z,4.85
2023-01-21T02:04:36.577Z,4.70
2023-01-21T02:07:06.636Z,5.43
2023-01-21T02:09:35.328Z,5.35
2023-01-21T02:12:04.712Z,5.28
2023-01-21T02:14:36.413Z,5.13
2023-01-21T02:17:09.166Z,4.93
2023-01-21T02:19:48.063Z,4.53
2023-01-21T02:22:31.512Z,5.10
2023-01-21T02:25:27.211Z,4.25
2023-01-21T02:28:02.544Z,3.80
2023-01-21T02:30:42.467Z,3.83
2023-01-21T02:33:22.140Z,3.95
2023-01-21T02:35:53.412Z,3.67
2023-01-21T02:38:26.779Z,5.07
2023-01-21T02:41:00.473Z,4.40
2023-01-21T02:43:38.339Z,4.95
2023-01-21T02:46:11.029Z,5.72
2023-01-21T02:48:44.133Z,5.35
2023-01-21T02:51:14.037Z,6.20
2023-01-21T02:53:42.677Z,5.47
2023-01-21T02:56:13.281Z,5.10
2023-01-21T02:58:44.473Z,4.97
2023-01-21T03:01:16.135Z,5.85
2023-01-21T03:03:56.354Z,5.07
2023-01-21T03:06:35.549Z,5.50
2023-01-21T03:09:08.154Z,5.63
2023-01-21T03:11:36.905Z,5.63
2023-01-21T03:14:28.645Z,5.45
2023-01-21T03:17:00.626Z,6.40
2023-01-21T03:19:34.917Z,5.82
2023-01-21T03:22:06.222Z,5.63
2023-01-21T03:24:35.720Z,5.70
2023-01-21T03:27:05.224Z,5.70
2023-01-21T03:29:34.127Z,5.30
2023-01-21T03:32:05.908Z,5.63
2023-01-21T03:34:38.330Z,5.10
2023-01-21T03:37:09.908Z,5.88
2023-01-21T03:39:42.991Z,6.10
2023-01-21T03:42:11.969Z,6.53
2023-01-21T03:44:41.302Z,6.85
2023-01-21T03:47:15.348Z,6.18
2023-01-21T03:49:46.273Z,6.65
2023-01-21T03:52:15.524Z,5.85
2023-01-21T03:54:44.146Z,5.88
2023-01-21T03:57:12.847Z,5.80
2023-01-21T03:59:41.525Z,6.50
2023-01-21T04:02:10.276Z,6.40
2023-01-21T04:04:39.146Z,6.03
2023-01-21T04:07:09.220Z,5.53
2023-01-21T04:09:38.281Z,6.07
2023-01-21T04:12:07.066Z,5.93
2023-01-21T04:14:35.796Z,5.07
2023-01-21T04:17:04.471Z,5.80
2023-01-21T04:19:33.121Z,5.25
2023-01-21T04:22:01.799Z,4.93
2023-01-21T04:24:34.494Z,5.20
2023-01-21T04:27:03.386Z,4.80
2023-01-21T04:29:32.135Z,4.65
2023-01-21T04:32:00.736Z,5.10
2023-01-21T04:34:29.508Z,4.85
2023-01-21T04:36:58.168Z,6.07
2023-01-21T04:39:26.956Z,5.10
2023-01-21T04:41:56.901Z,5.63
2023-01-21T04:44:25.706Z,5.32
2023-01-21T04:46:54.373Z,5.93
2023-01-21T04:49:23.002Z,5.90
2023-01-21T04:51:51.660Z,6.35
2023-01-21T04:54:20.277Z,5.60
2023-01-21T04:56:48.848Z,6.10
2023-01-21T04:59:18.917Z,6.18
2023-01-21T05:01:47.566Z,6.18
2023-01-21T05:04:16.180Z,5.68
2023-01-21T05:06:44.822Z,5.95
2023-01-21T05:09:13.440Z,5.93
2023-01-21T05:11:42.156Z,6.00
2023-01-21T05:14:11.122Z,6.80
2023-01-21T05:16:43.830Z,6.03
2023-01-21T05:19:14.802Z,5.88
2023-01-21T05:21:43.557Z,6.50
2023-01-21T05:24:12.147Z,6.22
2023-01-21T05:26:40.754Z,5.95
2023-01-21T05:29:09.414Z,6.10
2023-01-21T05:31:38.342Z,6.22
2023-01-21T05:34:09.651Z,5.80
2023-01-21T05:36:38.407Z,5.75
2023-01-21T05:39:07.064Z,5.60
2023-01-21T05:41:35.708Z,5.43
2023-01-21T05:44:04.356Z,5.70
2023-01-21T05:46:33.013Z,6.20
2023-01-21T05:49:01.571Z,6.28
2023-01-21T05:51:31.576Z,5.45
2023-01-21T05:54:00.306Z,5.95
2023-01-21T05:56:28.993Z,6.22
2023-01-21T05:58:57.674Z,5.97
2023-01-21T06:01:26.720Z,6.70
2023-01-21T06:03:59.910Z,5.90
2023-01-21T06:06:28.583Z,6.95
2023-01-21T06:08:59.024Z,7.75
2023-01-21T06:11:29.817Z,6.85
2023-01-21T06:13:58.448Z,7.20
2023-01-21T06:16:27.113Z,7.10
2023-01-21T06:18:55.736Z,7.63
2023-01-21T06:21:24.344Z,6.75
2023-01-21T06:23:52.946Z,7.50
2023-01-21T06:26:23.016Z,8.25
2023-01-21T06:28:51.687Z,8.00
2023-01-21T06:31:20.296Z,6.20
2023-01-21T06:33:48.981Z,7.00
2023-01-21T06:36:17.672Z,6.53
2023-01-21T06:38:46.259Z,6.93
2023-01-21T06:41:14.903Z,7.25
2023-01-21T06:43:44.907Z,8.43
2023-01-21T06:46:13.961Z,7.43
2023-01-21T06:48:43.339Z,7.93
2023-01-21T06:51:12.030Z,8.23
2023-01-21T06:53:40.716Z,8.45
2023-01-21T06:56:09.375Z,7.47
2023-01-21T06:58:37.960Z,6.72
2023-01-21T07:01:08.052Z,6.68
2023-01-21T07:03:36.881Z,8.07
2023-01-21T07:06:05.816Z,7.90
2023-01-21T07:08:34.889Z,7.80
2023-01-21T07:11:06.703Z,7.47
2023-01-21T07:13:35.795Z,6.97
2023-01-21T07:16:06.849Z,7.35
2023-01-21T07:18:36.973Z,6.28
2023-01-21T07:21:06.040Z,5.90
2023-01-21T07:23:34.717Z,5.80
2023-01-21T07:26:03.287Z,5.38
2023-01-21T07:28:31.937Z,5.65
2023-01-21T07:31:00.994Z,5.45
2023-01-21T07:33:29.628Z,6.25
2023-01-21T07:36:00.061Z,5.65
2023-01-21T07:38:28.751Z,5.82
2023-01-21T07:40:57.359Z,6.03
2023-01-21T07:43:27.372Z,6.15
2023-01-21T07:45:58.511Z,5.75
2023-01-21T07:48:28.528Z,4.80
2023-01-21T07:51:00.417Z,4.88
2023-01-21T07:53:29.302Z,5.25
2023-01-21T07:55:57.848Z,4.97
2023-01-21T07:58:26.540Z,5.70
2023-01-21T08:00:55.223Z,5.10
2023-01-21T08:03:25.170Z,5.47
2023-01-21T08:05:53.848Z,5.68
2023-01-21T08:08:23.896Z,5.93
2023-01-21T08:10:56.200Z,5.15
2023-01-21T08:13:24.933Z,6.10
2023-01-21T08:15:54.171Z,5.50
2023-01-21T08:18:23.412Z,5.28
2023-01-21T08:20:55.606Z,5.40
2023-01-21T08:23:25.874Z,5.07
2023-01-21T08:25:54.841Z,5.90
2023-01-21T08:28:23.570Z,5.97
2023-01-21T08:30:52.232Z,6.10
2023-01-21T08:33:20.959Z,5.90
2023-01-21T08:35:49.688Z,5.20
2023-01-21T08:38:18.316Z,5.32
2023-01-21T08:40:48.268Z,5.47
2023-01-21T08:43:17.001Z,6.50
2023-01-21T08:45:45.690Z,6.20
2023-01-21T08:48:14.496Z,7.07
2023-01-21T08:50:43.173Z,7.35
2023-01-21T08:53:12.578Z,6.80
2023-01-21T08:55:44.058Z,7.20
2023-01-21T08:58:14.169Z,6.45
2023-01-21T09:00:44.902Z,6.53
2023-01-21T09:03:17.165Z,6.43
2023-01-21T09:05:45.902Z,6.78
2023-01-21T09:08:14.792Z,6.10
2023-01-21T09:11:01.125Z,6.32
2023-01-21T09:13:31.712Z,6.07
2023-01-21T09:16:00.693Z,6.03
2023-01-21T09:18:29.516Z,6.32
2023-01-21T09:21:01.922Z,6.10
2023-01-21T09:23:34.086Z,6.18
2023-01-21T09:26:03.759Z,5.60
2023-01-21T09:28:34.723Z,5.57
2023-01-21T09:31:04.132Z,5.30
2023-01-21T09:33:33.377Z,5.05
2023-01-21T09:36:03.067Z,5.50
2023-01-21T09:38:35.245Z,5.18
2023-01-21T09:41:06.574Z,5.75
2023-01-21T09:43:40.479Z,5.63
2023-01-21T09:46:12.477Z,5.57
2023-01-21T09:48:44.002Z,5.68
2023-01-21T09:51:16.714Z,5.68
2023-01-21T09:53:47.608Z,5.57
2023-01-21T09:56:30.491Z,6.00
2023-01-21T09:59:04.731Z,5.20
2023-01-21T10:01:35.472Z,5.20
2023-01-21T10:04:06.315Z,5.28
2023-01-21T10:06:39.541Z,5.45
2023-01-21T10:09:29.475Z,4.53
2023-01-21T10:12:03.744Z,4.88
2023-01-21T10:14:47.245Z,5.32
2023-01-21T10:17:20.270Z,6.10
2023-01-21T10:19:52.840Z,5.40
2023-01-21T10:22:23.632Z,5.78
2023-01-21T10:24:53.677Z,5.43
2023-01-21T10:27:23.968Z,5.97
2023-01-21T10:29:54.049Z,5.40
2023-01-21T10:32:26.994Z,5.30
2023-01-21T10:34:56.295Z,5.30
2023-01-21T10:37:28.612Z,5.07
2023-01-21T10:40:00.043Z,4.78
2023-01-21T10:42:43.534Z,4.68
2023-01-21T10:45:18.003Z,4.53
2023-01-21T10:47:50.261Z,4.82
2023-01-21T10:50:30.223Z,5.20
2023-01-21T10:53:01.639Z,4.65
2023-01-21T10:55:36.569Z,5.00
2023-01-21T10:58:11.406Z,4.68
2023-01-21T11:00:44.645Z,5.10
2023-01-21T11:03:17.095Z,4.70
2023-01-21T11:05:47.536Z,5.47
2023-01-21T11:08:20.361Z,4.80
2023-01-21T11:10:49.986Z,4.72
2023-01-21T11:13:21.684Z,5.05
2023-01-21T11:15:52.401Z,4.70
2023-01-21T11:18:30.689Z,5.72
2023-01-21T11:21:01.733Z,5.32
2023-01-21T11:23:31.547Z,4.45
2023-01-21T11:26:04.694Z,5.03
2023-01-21T11:28:34.851Z,4.45
2023-01-21T11:31:09.960Z,4.85
2023-01-21T11:33:40.539Z,4.88
2023-01-21T11:36:16.496Z,4.65
2023-01-21T11:38:47.330Z,5.15
2023-01-21T11:41:17.700Z,4.60
2023-01-21T11:43:47.122Z,5.15
2023-01-21T11:46:28.370Z,5.03
2023-01-21T11:48:59.682Z,4.85
2023-01-21T11:51:28.392Z,4.28
2023-01-21T11:54:11.890Z,4.70
2023-01-21T11:56:43.298Z,4.80
2023-01-21T11:59:22.158Z,4.93
2023-01-21T12:01:54.839Z,4.55
2023-01-21T12:04:25.523Z,4.88
2023-01-21T12:06:58.068Z,4.95
2023-01-21T12:09:27.345Z,4.47
2023-01-21T12:12:20.872Z,4.95
2023-01-21T12:14:55.273Z,4.72
2023-01-21T12:17:39.871Z,4.95
2023-01-21T12:20:20.335Z,4.32
2023-01-21T12:23:03.780Z,4.15
2023-01-21T12:25:38.399Z,4.63
2023-01-21T12:28:15.503Z,4.25
2023-01-21T12:30:49.398Z,4.35
2023-01-21T12:33:20.305Z,4.65
2023-01-21T12:35:52.498Z,4.32
2023-01-21T12:38:22.590Z,4.57
2023-01-21T12:40:53.048Z,4.70
2023-01-21T12:43:24.653Z,5.07
2023-01-21T12:45:55.760Z,4.05
2023-01-21T12:48:28.680Z,4.00
2023-01-21T12:51:01.281Z,4.70
2023-01-21T12:53:37.304Z,4.63
2023-01-21T12:56:14.254Z,4.43
2023-01-21T12:58:45.685Z,4.55
2023-01-21T13:01:16.115Z,4.00
2023-01-21T13:03:50.049Z,4.00
2023-01-21T13:06:23.948Z,4.00
2023-01-21T13:09:02.402Z,4.30
2023-01-21T13:11:34.736Z,4.03
2023-01-21T13:14:24.749Z,4.10
2023-01-21T13:16:56.217Z,4.20
2023-01-21T13:19:24.954Z,4.68
2023-01-21T13:21:57.007Z,4.63
2023-01-21T13:24:31.855Z,4.50
2023-01-21T13:27:05.378Z,4.75
2023-01-21T13:29:37.070Z,4.10
2023-01-21T13:32:18.525Z,4.70
2023-01-21T13:34:52.618Z,4.55
2023-01-21T13:37:25.660Z,4.25
2023-01-21T13:39:57.948Z,4.38
2023-01-21T13:42:34.297Z,4.55
2023-01-21T13:45:22.443Z,5.47
2023-01-21T13:48:02.705Z,4.60
2023-01-21T13:50:38.789Z,4.25
2023-01-21T13:53:24.197Z,4.43
2023-01-21T13:55:58.761Z,4.43
2023-01-21T13:58:34.625Z,5.30
2023-01-21T14:01:05.332Z,4.75
2023-01-21T14:03:37.519Z,4.55
2023-01-21T14:06:08.449Z,4.18
2023-01-21T14:08:40.549Z,4.35
2023-01-21T14:11:12.338Z,4.85
2023-01-21T14:13:55.931Z,4.18
2023-01-21T14:16:30.649Z,4.47
2023-01-21T14:19:08.889Z,4.40
2023-01-21T14:21:47.936Z,4.57
2023-01-21T14:24:20.123Z,4.28
2023-01-21T14:26:59.118Z,4.93
2023-01-21T14:29:33.625Z,4.97
2023-01-21T14:32:05.857Z,5.93
2023-01-21T14:34:36.826Z,4.82
2023-01-21T14:37:07.658Z,4.57
2023-01-21T14:39:43.411Z,3.85
2023-01-21T14:42:16.312Z,4.18
2023-01-21T14:44:48.000Z,4.30
2023-01-21T14:47:18.310Z,3.90
2023-01-21T14:49:48.374Z,3.80
2023-01-21T14:52:17.893Z,4.07
2023-01-21T14:54:47.269Z,3.80
2023-01-21T14:57:30.492Z,4.75
2023-01-21T15:00:05.606Z,4.50
2023-01-21T15:02:42.135Z,4.82
2023-01-21T15:05:19.082Z,3.95
2023-01-21T15:07:50.904Z,4.43
2023-01-21T15:10:21.360Z,4.68
2023-01-21T15:12:53.866Z,4.22
2023-01-21T15:15:31.018Z,5.18
2023-01-21T15:18:04.947Z,4.65
2023-01-21T15:20:45.818Z,5.13
2023-01-21T15:23:22.465Z,4.95
2023-01-21T15:26:11.171Z,5.28
2023-01-21T15:28:43.800Z,5.82
2023-01-21T15:31:13.874Z,6.53
2023-01-21T15:33:45.204Z,8.57
2023-01-21T15:36:20.829Z,5.40
2023-01-21T15:38:50.759Z,5.05
2023-01-21T15:41:27.225Z,5.20
2023-01-21T15:44:01.050Z,5.30
2023-01-21T15:46:34.823Z,4.85
2023-01-21T15:49:09.560Z,5.00
2023-01-21T15:51:50.734Z,4.60
2023-01-21T15:54:24.332Z,4.82
2023-01-21T15:56:58.219Z,5.30
2023-01-21T15:59:36.987Z,4.30
2023-01-21T16:02:16.982Z,5.22
2023-01-21T16:04:50.330Z,4.85
2023-01-21T16:07:23.380Z,4.45
2023-01-21T16:09:59.235Z,4.45
2023-01-21T16:12:34.202Z,4.90
2023-01-21T16:15:09.774Z,5.00
2023-01-21T16:17:44.699Z,5.03
2023-01-21T16:20:16.565Z,5.38
2023-01-21T16:22:47.665Z,4.55
2023-01-21T16:25:19.314Z,5.05
2023-01-21T16:27:48.891Z,6.28
2023-01-21T16:30:22.033Z,5.50
2023-01-21T16:33:08.049Z,4.85
2023-01-21T16:35:43.734Z,4.70
2023-01-21T16:38:15.789Z,5.20
2023-01-21T16:40:44.730Z,5.10
2023-01-21T16:43:16.811Z,5.20
2023-01-21T16:45:51.402Z,4.72
2023-01-21T16:48:24.382Z,4.90
2023-01-21T16:50:53.500Z,4.93
2023-01-21T16:53:22.678Z,4.47
2023-01-21T16:55:53.141Z,5.47
2023-01-21T16:58:27.737Z,5.20
2023-01-21T17:01:03.933Z,5.03
2023-01-21T17:03:40.153Z,4.75
2023-01-21T17:06:11.174Z,5.20
2023-01-21T17:08:40.747Z,6.18
2023-01-21T17:11:12.472Z,6.75
2023-01-21T17:13:42.861Z,6.53
2023-01-21T17:16:20.393Z,5.80
2023-01-21T17:18:52.461Z,6.18
2023-01-21T17:21:22.781Z,5.43
2023-01-21T17:23:53.769Z,5.15
2023-01-21T17:26:25.703Z,5.28
2023-01-21T17:28:57.599Z,5.20
2023-01-21T17:31:30.806Z,4.43
2023-01-21T17:34:03.838Z,4.30
2023-01-21T17:36:32.883Z,4.90
2023-01-21T17:39:01.622Z,5.68
2023-01-21T17:41:32.578Z,6.35
2023-01-21T17:44:02.228Z,7.38
2023-01-21T17:46:32.565Z,6.25
2023-01-21T17:49:06.357Z,8.27
2023-01-21T17:51:35.777Z,8.00
2023-01-21T17:54:05.621Z,7.07
2023-01-21T17:56:41.981Z,5.60
2023-01-21T17:59:27.808Z,5.97
2023-01-21T18:01:57.917Z,5.45
2023-01-21T18:04:26.547Z,4.30
2023-01-21T18:06:55.895Z,4.18
2023-01-21T18:09:26.065Z,5.00
2023-01-21T18:11:55.714Z,5.60
2023-01-21T18:14:25.379Z,5.65
2023-01-21T18:16:54.633Z,5.75
2023-01-21T18:19:33.067Z,6.05
2023-01-21T18:22:02.046Z,6.38
2023-01-21T18:24:31.167Z,6.10
2023-01-21T18:27:01.670Z,5.53
2023-01-21T18:29:30.679Z,5.00
2023-01-21T18:31:59.448Z,5.50
2023-01-21T18:34:29.193Z,5.03
2023-01-21T18:37:02.484Z,5.80
2023-01-21T18:39:31.194Z,6.95
2023-01-21T18:41:59.786Z,5.60
2023-01-21T18:44:28.320Z,4.82
2023-01-21T18:46:57.157Z,4.47
2023-01-21T18:49:27.765Z,5.32
2023-01-21T18:51:56.349Z,4.43
2023-01-21T18:54:26.744Z,3.95
2023-01-21T18:56:55.461Z,4.75
2023-01-21T18:59:24.132Z,4.80
2023-01-21T19:01:52.869Z,4.22
2023-01-21T19:04:21.578Z,4.75
2023-01-21T19:06:51.065Z,5.03
2023-01-21T19:09:21.544Z,5.03
2023-01-21T19:11:53.685Z,5.28
2023-01-21T19:14:22.312Z,7.90
2023-01-21T19:16:51.087Z,6.25
2023-01-21T19:19:22.687Z,5.72
2023-01-21T19:21:51.364Z,5.30
2023-01-21T19:24:19.925Z,5.72
2023-01-21T19:26:48.718Z,5.15
2023-01-21T19:29:23.647Z,4.88
2023-01-21T19:31:52.616Z,5.47
2023-01-21T19:34:21.931Z,5.72
2023-01-21T19:36:50.669Z,6.28
2023-01-21T19:39:21.281Z,5.45
2023-01-21T19:42:03.438Z,5.28
2023-01-21T19:44:39.333Z,5.25
2023-01-21T19:47:08.850Z,4.95
2023-01-21T19:49:37.401Z,4.88
2023-01-21T19:52:06.478Z,4.38
2023-01-21T19:54:35.149Z,4.03
2023-01-21T19:57:03.944Z,4.10
2023-01-21T19:59:34.789Z,3.80
2023-01-21T20:02:04.844Z,3.65
2023-01-21T20:04:33.469Z,3.72
2023-01-21T20:07:02.180Z,4.70
2023-01-21T20:09:30.902Z,4.30
2023-01-21T20:12:04.207Z,3.80
2023-01-21T20:14:36.017Z,4.50
2023-01-21T20:17:06.448Z,4.63
2023-01-21T20:19:35.471Z,4.57
2023-01-21T20:22:04.101Z,4.35
2023-01-21T20:24:34.048Z,4.53
2023-01-21T20:27:05.237Z,4.68
2023-01-21T20:29:36.001Z,4.53
2023-01-21T20:32:07.828Z,4.15
2023-01-21T20:34:37.414Z,4.53
2023-01-21T20:37:07.646Z,4.65
2023-01-21T20:39:38.851Z,4.90
2023-01-21T20:42:07.600Z,4.60
2023-01-21T20:44:36.213Z,4.63
2023-01-21T20:47:07.478Z,4.00
2023-01-21T20:49:37.467Z,4.43
2023-01-21T20:52:06.201Z,4.03
2023-01-21T20:54:34.872Z,3.67
2023-01-21T20:57:03.871Z,3.80
2023-01-21T20:59:32.666Z,4.15
2023-01-21T21:02:01.417Z,4.22
2023-01-21T21:04:30.175Z,3.92
2023-01-21T21:07:00.455Z,4.72
2023-01-21T21:09:29.211Z,4.05
2023-01-21T21:12:00.200Z,5.30
2023-01-21T21:14:28.904Z,5.25
2023-01-21T21:16:58.181Z,5.15
2023-01-21T21:19:26.950Z,5.68
2023-01-21T21:21:55.793Z,5.30
2023-01-21T21:24:29.849Z,5.88
2023-01-21T21:26:58.519Z,5.80
2023-01-21T21:29:28.958Z,5.15
2023-01-21T21:31:59.076Z,5.03
2023-01-21T21:34:27.794Z,6.00
2023-01-21T21:36:56.436Z,6.13
2023-01-21T21:39:26.797Z,6.35
2023-01-21T21:42:15.072Z,5.80
2023-01-21T21:44:44.736Z,5.75
2023-01-21T21:47:30.922Z,6.13
2023-01-21T21:49:59.702Z,6.63
2023-01-21T21:52:28.347Z,5.78
2023-01-21T21:54:58.358Z,7.50
2023-01-21T21:57:27.252Z,6.60
2023-01-21T21:59:55.946Z,5.60
2023-01-21T22:02:26.941Z,6.20
2023-01-21T22:04:55.600Z,6.00
2023-01-21T22:07:24.261Z,6.47
2023-01-21T22:09:53.038Z,6.22
2023-01-21T22:12:23.057Z,5.45
2023-01-21T22:14:52.087Z,5.57
2023-01-21T22:17:20.742Z,5.75
2023-01-21T22:19:49.482Z,5.47
2023-01-21T22:22:18.107Z,6.10
2023-01-21T22:24:46.804Z,5.90
2023-01-21T22:27:15.743Z,6.45
2023-01-21T22:29:45.845Z,5.90
2023-01-21T22:32:16.268Z,5.00
2023-01-21T22:34:45.064Z,4.72
2023-01-21T22:37:13.781Z,5.93
2023-01-21T22:39:42.439Z,5.43
2023-01-21T22:42:11.171Z,5.65
2023-01-21T22:44:45.010Z,5.78
2023-01-21T22:47:15.152Z,5.32
2023-01-21T22:49:44.897Z,5.65
2023-01-21T22:52:15.095Z,5.53
2023-01-21T22:54:43.633Z,5.47
2023-01-21T22:57:12.371Z,5.78
2023-01-21T22:59:43.941Z,5.45
2023-01-21T23:02:12.749Z,4.82
2023-01-21T23:04:42.948Z,4.68
2023-01-21T23:07:11.599Z,5.55
2023-01-21T23:09:40.684Z,4.60
2023-01-21T23:12:18.660Z,4.45
2023-01-21T23:14:47.535Z,4.55
2023-01-21T23:17:17.720Z,4.40
2023-01-21T23:19:47.783Z,4.88
2023-01-21T23:22:16.390Z,4.45
2023-01-21T23:24:45.016Z,4.88
2023-01-21T23:27:13.702Z,5.88
2023-01-21T23:29:42.566Z,5.47
2023-01-21T23:32:11.357Z,4.95
2023-01-21T23:34:40.020Z,4.85
2023-01-21T23:37:10.217Z,5.60
2023-01-21T23:39:38.885Z,5.05
2023-01-21T23:42:07.732Z,4.72
2023-01-21T23:44:36.357Z,5.22
2023-01-21T23:47:05.128Z,5.20
2023-01-21T23:49:33.877Z,5.65
2023-01-21T23:52:05.120Z,5.72
2023-01-21T23:54:35.261Z,5.80
2023-01-21T23:57:03.940Z,5.60
2023-01-21T23:59:36.540Z,5.60
